Cincinnati, Iowa
Current Conditions -  °F | °C
As of 1:15 AM on Friday 31 Oct 2014 (Local Time) from KTVK Reporting Station
Overcast Overcast  
Wind Chill: 42°   Ceiling: 3600
Heat Index: 48°   Visibility: 10mi
Dew Point: 39°   Wind: 15mph
Humidity: 71%   Direction: 330°NNW
Pressure: 30.22"   Gusts: 22mph
Location:  40.63°N, 92.92°W
Report Text: KTVK 310615Z AUTO 33013G19KT 10SM SCT028 OVC036 09/04 A3022 RMK AO2
Loading
Personal Weather Stations






























Interactive Weather Map
Tropical Storm Tracking
New forecast layout! Learn more

10-Day Weather Forecast

Advertisements
Track Severe Weather on mobile